createdAt,value
2017-07-28T00:00:15.216Z,2.60
2017-07-28T00:01:11.872Z,2.70
2017-07-28T00:02:08.255Z,2.50
2017-07-28T00:03:04.615Z,2.00
2017-07-28T00:04:00.903Z,2.50
2017-07-28T00:04:57.216Z,2.00
2017-07-28T00:05:53.732Z,1.90
2017-07-28T00:06:50.898Z,2.30
2017-07-28T00:07:48.118Z,2.70
2017-07-28T00:08:44.543Z,3.00
2017-07-28T00:09:40.824Z,2.10
2017-07-28T00:10:38.084Z,1.90
2017-07-28T00:11:34.415Z,2.50
2017-07-28T00:12:31.639Z,2.60
2017-07-28T00:13:28.259Z,2.30
2017-07-28T00:14:24.676Z,2.50
2017-07-28T00:15:21.018Z,2.60
2017-07-28T00:16:17.296Z,2.50
2017-07-28T00:17:14.519Z,2.30
2017-07-28T00:18:10.923Z,2.80
2017-07-28T00:19:07.375Z,2.40
2017-07-28T00:20:03.794Z,2.00
2017-07-28T00:21:00.116Z,2.40
2017-07-28T00:21:57.455Z,2.10
2017-07-28T00:22:54.779Z,2.10
2017-07-28T00:23:52.575Z,2.20
2017-07-28T00:24:49.027Z,2.50
2017-07-28T00:25:46.616Z,2.40
2017-07-28T00:26:43.977Z,2.00
2017-07-28T00:27:44.888Z,2.40
2017-07-28T00:37:52.731Z,2.60
2017-07-28T00:38:49.163Z,2.40
2017-07-28T00:39:45.506Z,2.30
2017-07-28T00:40:41.827Z,2.50
2017-07-28T00:41:38.147Z,2.70
2017-07-28T00:42:34.485Z,2.50
2017-07-28T00:43:31.738Z,2.60
2017-07-28T00:44:28.060Z,2.50
2017-07-28T00:45:25.219Z,2.40
2017-07-28T00:46:22.492Z,2.90
2017-07-28T00:47:19.916Z,2.60
2017-07-28T00:48:16.419Z,3.60
2017-07-28T00:49:12.723Z,2.20
2017-07-28T00:50:09.096Z,2.80
2017-07-28T00:51:07.415Z,3.60
2017-07-28T00:52:03.756Z,2.90
2017-07-28T00:53:00.040Z,2.10
2017-07-28T01:14:58.130Z,2.80
2017-07-28T01:15:54.427Z,2.50
2017-07-28T01:16:50.840Z,3.20
2017-07-28T01:17:47.327Z,2.70
2017-07-28T01:18:43.599Z,3.00
2017-07-28T01:19:41.116Z,2.50
2017-07-28T01:20:37.683Z,2.90
2017-07-28T01:21:33.984Z,3.50
2017-07-28T01:22:30.366Z,3.70
2017-07-28T01:23:40.778Z,2.90
2017-07-28T01:24:37.087Z,3.50
2017-07-28T01:25:33.827Z,2.90
2017-07-28T01:26:30.279Z,3.50
2017-07-28T01:27:26.628Z,3.30
2017-07-28T01:28:23.052Z,2.90
2017-07-28T01:29:19.416Z,3.70
2017-07-28T01:30:15.787Z,3.00
2017-07-28T01:31:12.120Z,2.90
2017-07-28T01:32:08.731Z,3.50
2017-07-28T01:33:05.051Z,3.70
2017-07-28T01:34:03.476Z,3.80
2017-07-28T01:34:59.851Z,3.10
2017-07-28T01:35:56.174Z,3.30
2017-07-28T01:36:52.466Z,3.50
2017-07-28T01:37:48.899Z,3.60
2017-07-28T01:38:46.226Z,3.30
2017-07-28T01:39:42.541Z,2.80
2017-07-28T01:40:38.902Z,2.90
2017-07-28T01:41:40.263Z,3.20
2017-07-28T01:46:06.784Z,3.90
2017-07-28T01:47:04.046Z,3.50
2017-07-28T01:48:00.512Z,3.60
2017-07-28T01:48:57.900Z,3.40
2017-07-28T01:49:54.468Z,4.00
2017-07-28T01:50:52.849Z,3.90
2017-07-28T01:51:50.284Z,3.80
2017-07-28T01:52:47.756Z,3.90
2017-07-28T01:53:44.336Z,3.10
2017-07-28T01:54:41.734Z,4.00
2017-07-28T01:55:38.042Z,3.90
2017-07-28T01:56:34.486Z,3.20
2017-07-28T01:57:31.663Z,3.90
2017-07-28T01:58:28.038Z,3.70
2017-07-28T01:59:24.487Z,4.10
2017-07-28T02:00:21.047Z,4.10
2017-07-28T02:01:17.468Z,4.00
2017-07-28T02:02:14.148Z,3.80
2017-07-28T02:03:10.443Z,3.60
2017-07-28T02:04:06.795Z,3.50
2017-07-28T02:05:03.115Z,3.90
2017-07-28T02:07:10.415Z,3.50
2017-07-28T02:08:07.731Z,4.10
2017-07-28T02:09:05.058Z,3.70
2017-07-28T02:10:01.416Z,3.80
2017-07-28T02:10:58.645Z,4.20
2017-07-28T02:11:59.129Z,3.60
2017-07-28T02:12:56.579Z,4.00
2017-07-28T02:13:54.191Z,3.60
2017-07-28T02:14:50.607Z,3.70
2017-07-28T02:17:03.379Z,3.80
2017-07-28T02:18:00.748Z,3.70
2017-07-28T02:18:57.163Z,3.70
2017-07-28T02:21:11.507Z,4.20
2017-07-28T02:22:12.041Z,4.30
2017-07-28T02:23:11.271Z,3.60
2017-07-28T02:24:09.743Z,4.30
2017-07-28T02:25:06.182Z,4.00
2017-07-28T02:27:13.451Z,3.50
2017-07-28T02:28:10.821Z,3.60
2017-07-28T02:29:09.142Z,3.90
2017-07-28T02:30:08.702Z,4.20
2017-07-28T02:31:06.627Z,3.90
2017-07-28T02:32:03.952Z,3.50
2017-07-28T02:33:00.426Z,3.60
2017-07-28T02:33:57.955Z,3.50
2017-07-28T02:34:54.375Z,3.30
2017-07-28T02:35:56.792Z,3.70
2017-07-28T02:36:53.265Z,3.60
2017-07-28T02:37:51.591Z,3.80
2017-07-28T02:38:48.016Z,4.00
2017-07-28T02:39:45.404Z,3.20
2017-07-28T02:40:42.235Z,3.80
2017-07-28T02:41:38.584Z,3.90
2017-07-28T02:42:35.143Z,3.80
2017-07-28T02:43:31.888Z,4.10
2017-07-28T02:44:28.325Z,3.60
2017-07-28T02:45:26.299Z,5.60
2017-07-28T02:46:27.424Z,3.40
2017-07-28T02:47:24.728Z,3.70
2017-07-28T02:48:21.316Z,4.40
2017-07-28T02:49:18.039Z,4.10
2017-07-28T02:50:14.712Z,3.90
2017-07-28T02:51:11.044Z,4.30
2017-07-28T02:52:07.428Z,4.50
2017-07-28T02:53:05.600Z,4.00
2017-07-28T02:54:03.972Z,4.50
2017-07-28T02:55:00.583Z,4.60
2017-07-28T02:55:58.917Z,4.10
2017-07-28T02:56:55.703Z,3.50
2017-07-28T02:57:53.540Z,3.40
2017-07-28T02:58:50.899Z,4.30
2017-07-28T02:59:48.141Z,3.60
2017-07-28T03:00:46.434Z,3.60
2017-07-28T03:01:43.368Z,3.80
2017-07-28T03:07:20.356Z,4.00
2017-07-28T03:08:17.348Z,4.50
2017-07-28T03:09:18.590Z,4.20
2017-07-28T03:10:22.863Z,4.10
2017-07-28T03:11:25.464Z,4.10
2017-07-28T03:12:22.555Z,4.20
2017-07-28T03:13:21.931Z,4.70
2017-07-28T03:14:21.505Z,3.60
2017-07-28T03:22:26.359Z,3.00
2017-07-28T03:23:30.117Z,3.30
2017-07-28T03:25:41.949Z,4.10
2017-07-28T03:26:38.774Z,4.40
2017-07-28T03:27:39.630Z,3.80
2017-07-28T03:28:42.179Z,5.10
2017-07-28T03:29:39.631Z,3.50
2017-07-28T03:35:44.596Z,3.80
2017-07-28T03:38:00.163Z,3.70
2017-07-28T03:40:35.974Z,4.00
2017-07-28T03:50:24.264Z,3.80
2017-07-28T03:58:40.936Z,3.70
2017-07-28T04:09:43.834Z,4.30
2017-07-28T04:11:05.704Z,4.40
2017-07-28T04:50:39.502Z,5.90
2017-07-28T04:51:49.199Z,5.70
2017-07-28T04:52:51.160Z,7.60
2017-07-28T05:01:18.652Z,6.20
2017-07-28T05:02:21.592Z,6.30
2017-07-28T05:10:59.801Z,6.50
2017-07-28T05:11:58.168Z,6.40
2017-07-28T05:14:11.520Z,7.30
2017-07-28T05:27:11.152Z,5.60
2017-07-28T05:37:03.851Z,6.30
2017-07-28T05:40:42.263Z,6.40
2017-07-28T05:50:25.703Z,6.20
2017-07-28T05:56:38.474Z,6.50
2017-07-28T06:03:56.865Z,5.90
2017-07-28T06:04:58.660Z,7.20
2017-07-28T06:13:37.750Z,5.80
2017-07-28T06:14:35.611Z,5.20
2017-07-28T06:15:38.471Z,6.00
2017-07-28T06:19:03.840Z,6.20
2017-07-28T06:26:25.587Z,5.40
2017-07-28T06:31:14.116Z,5.70
2017-07-28T06:44:42.276Z,4.60
2017-07-28T06:48:06.899Z,4.40
2017-07-28T06:49:05.492Z,5.60
2017-07-28T06:51:27.121Z,5.00
2017-07-28T06:52:23.939Z,5.10
2017-07-28T06:53:26.260Z,4.20
2017-07-28T06:55:34.065Z,4.50
2017-07-28T06:56:31.609Z,4.70
2017-07-28T06:57:28.310Z,4.40
2017-07-28T06:58:25.333Z,4.00
2017-07-28T07:00:42.298Z,4.00
2017-07-28T07:01:39.270Z,4.30
2017-07-28T07:02:36.023Z,4.50
2017-07-28T07:03:32.978Z,6.60
2017-07-28T07:04:31.399Z,4.30
2017-07-28T07:05:29.865Z,4.10
2017-07-28T07:06:27.291Z,3.90
2017-07-28T07:07:23.572Z,4.20
2017-07-28T07:08:19.834Z,4.50
2017-07-28T07:09:16.087Z,4.20
2017-07-28T07:10:12.329Z,5.00
2017-07-28T07:11:08.590Z,4.10
2017-07-28T07:12:04.888Z,4.30
2017-07-28T07:13:01.150Z,3.50
2017-07-28T07:13:57.405Z,3.50
2017-07-28T07:14:53.650Z,3.90
2017-07-28T07:15:49.889Z,3.80
2017-07-28T07:16:46.127Z,4.20
2017-07-28T07:17:42.378Z,4.30
2017-07-28T07:18:38.639Z,4.30
2017-07-28T07:19:34.881Z,4.00
2017-07-28T07:20:31.134Z,4.60
2017-07-28T07:21:27.392Z,3.60
2017-07-28T07:22:23.639Z,3.90
2017-07-28T07:23:19.894Z,4.20
2017-07-28T07:24:16.151Z,3.90
2017-07-28T07:25:12.408Z,3.80
2017-07-28T07:27:12.943Z,4.50
2017-07-28T07:28:09.351Z,4.00
2017-07-28T07:29:05.623Z,4.20
2017-07-28T07:30:01.866Z,3.90
2017-07-28T07:30:58.114Z,4.70
2017-07-28T07:31:54.370Z,4.90
2017-07-28T07:32:50.622Z,3.60
2017-07-28T07:33:46.886Z,4.00
2017-07-28T07:34:44.040Z,3.90
2017-07-28T07:35:40.279Z,3.00
2017-07-28T07:36:36.538Z,4.50
2017-07-28T07:37:32.786Z,4.00
2017-07-28T07:38:29.066Z,3.50
2017-07-28T07:39:25.357Z,3.70
2017-07-28T07:40:21.589Z,3.90
2017-07-28T07:41:17.835Z,3.40
2017-07-28T07:42:14.079Z,3.50
2017-07-28T07:43:10.318Z,4.00
2017-07-28T07:44:06.571Z,3.90
2017-07-28T07:45:02.832Z,5.50
2017-07-28T07:45:59.087Z,3.60
2017-07-28T07:46:55.329Z,3.40
2017-07-28T07:47:51.584Z,4.00
2017-07-28T07:48:47.845Z,3.90
2017-07-28T07:49:44.081Z,3.80
2017-07-28T07:50:40.340Z,3.50
2017-07-28T07:51:36.590Z,4.50
2017-07-28T07:52:32.835Z,5.00
2017-07-28T07:53:29.099Z,4.60
2017-07-28T07:54:25.378Z,3.60
2017-07-28T07:55:21.642Z,3.10
2017-07-28T07:56:17.917Z,3.20
2017-07-28T07:57:14.522Z,4.00
2017-07-28T07:58:10.759Z,3.80
2017-07-28T07:59:07.020Z,3.30
2017-07-28T08:00:03.271Z,3.80
2017-07-28T08:00:59.514Z,4.30
2017-07-28T08:01:55.754Z,3.90
2017-07-28T08:02:52.006Z,3.60
2017-07-28T08:03:48.279Z,4.10
2017-07-28T08:04:44.557Z,3.40
2017-07-28T08:05:40.808Z,3.60
2017-07-28T08:06:37.050Z,3.10
2017-07-28T08:07:33.305Z,4.00
2017-07-28T08:08:29.546Z,3.50
2017-07-28T08:09:25.807Z,3.10
2017-07-28T08:10:22.059Z,3.10
2017-07-28T08:11:18.302Z,3.00
2017-07-28T08:12:14.542Z,3.10
2017-07-28T08:13:10.797Z,3.30
2017-07-28T08:14:07.051Z,5.30
2017-07-28T08:15:03.317Z,4.00
2017-07-28T08:15:59.558Z,3.10
2017-07-28T08:16:55.809Z,2.70
2017-07-28T08:17:52.047Z,3.30
2017-07-28T08:18:48.291Z,3.30
2017-07-28T08:19:44.567Z,3.60
2017-07-28T08:20:40.810Z,3.20
2017-07-28T08:21:37.079Z,2.90
2017-07-28T08:22:33.322Z,2.80
2017-07-28T08:23:29.554Z,4.70
2017-07-28T08:24:25.794Z,3.00
2017-07-28T08:25:22.058Z,3.40
2017-07-28T08:26:18.286Z,3.40
2017-07-28T08:27:14.531Z,3.10
2017-07-28T08:28:10.778Z,3.00
2017-07-28T08:29:07.014Z,2.80
2017-07-28T08:30:03.284Z,3.00
2017-07-28T08:30:59.526Z,2.60
2017-07-28T08:31:55.763Z,3.30
2017-07-28T08:32:52.002Z,3.20
2017-07-28T08:33:48.234Z,3.20
2017-07-28T08:34:44.490Z,2.70
2017-07-28T08:35:40.741Z,2.30
2017-07-28T08:36:36.987Z,2.70
2017-07-28T08:37:33.230Z,3.00
2017-07-28T08:38:29.470Z,2.90
2017-07-28T08:39:25.938Z,3.00
2017-07-28T08:40:22.214Z,2.90
2017-07-28T08:41:18.459Z,3.80
2017-07-28T08:42:14.694Z,4.00
2017-07-28T08:43:10.923Z,2.70
2017-07-28T08:44:08.129Z,2.50
2017-07-28T08:45:04.371Z,2.50
2017-07-28T08:46:00.643Z,2.80
2017-07-28T08:46:56.885Z,2.90
2017-07-28T08:47:53.126Z,3.10
2017-07-28T08:48:49.358Z,3.00
2017-07-28T08:49:45.599Z,3.60
2017-07-28T08:50:41.862Z,3.30
2017-07-28T08:51:38.101Z,2.70
2017-07-28T08:52:34.330Z,2.60
2017-07-28T08:53:30.570Z,2.40
2017-07-28T08:54:26.814Z,3.00
2017-07-28T08:55:23.062Z,2.80
2017-07-28T08:56:19.322Z,3.10
2017-07-28T08:57:15.550Z,2.70
2017-07-28T08:58:11.782Z,2.50
2017-07-28T08:59:08.019Z,2.70
2017-07-28T09:00:04.272Z,3.10
2017-07-28T09:01:00.527Z,3.50
2017-07-28T09:01:56.776Z,3.50
2017-07-28T09:02:53.024Z,4.30
2017-07-28T09:03:50.165Z,3.00
2017-07-28T09:04:46.408Z,2.70
2017-07-28T09:05:42.638Z,2.80
2017-07-28T09:06:38.908Z,3.20
2017-07-28T09:07:35.163Z,3.10
2017-07-28T09:08:31.407Z,3.00
2017-07-28T09:09:27.662Z,2.80
2017-07-28T09:10:23.907Z,3.10
2017-07-28T09:11:20.157Z,3.00
2017-07-28T09:12:16.409Z,2.90
2017-07-28T09:13:12.658Z,3.20
2017-07-28T09:14:08.984Z,2.60
2017-07-28T09:15:05.200Z,2.80
2017-07-28T09:16:03.897Z,2.50
2017-07-28T09:17:00.174Z,3.10
2017-07-28T09:17:56.411Z,3.20
2017-07-28T09:18:52.653Z,3.40
2017-07-28T09:19:48.906Z,2.90
2017-07-28T09:20:45.146Z,2.70
2017-07-28T09:21:41.386Z,2.40
2017-07-28T09:22:37.619Z,3.20
2017-07-28T09:23:33.859Z,3.10
2017-07-28T09:24:30.133Z,3.10
2017-07-28T09:25:26.375Z,2.60
2017-07-28T09:26:22.645Z,2.80
2017-07-28T09:27:18.882Z,5.40
2017-07-28T09:28:15.130Z,2.40
2017-07-28T09:29:11.374Z,2.60
2017-07-28T09:30:07.630Z,2.60
2017-07-28T09:31:03.863Z,3.20
2017-07-28T09:32:00.861Z,2.30
2017-07-28T09:32:57.113Z,2.60
2017-07-28T09:33:53.358Z,2.70
2017-07-28T09:34:49.594Z,3.50
2017-07-28T09:35:45.822Z,2.50
2017-07-28T09:36:42.063Z,3.40
2017-07-28T09:37:38.376Z,2.30
2017-07-28T09:38:34.630Z,2.70
2017-07-28T09:39:30.871Z,2.60
2017-07-28T09:40:27.112Z,3.50
2017-07-28T09:41:23.351Z,2.30
2017-07-28T09:42:19.607Z,2.50
2017-07-28T09:43:15.842Z,2.10
2017-07-28T09:44:12.083Z,2.90
2017-07-28T09:45:08.335Z,2.40
2017-07-28T09:46:04.573Z,2.60
2017-07-28T09:47:00.818Z,3.00
2017-07-28T09:47:57.086Z,2.70
2017-07-28T09:48:53.359Z,2.70
2017-07-28T09:49:49.625Z,2.30
2017-07-28T09:50:45.890Z,2.50
2017-07-28T09:51:42.139Z,2.80
2017-07-28T09:52:38.393Z,2.50
2017-07-28T09:53:34.630Z,2.50
2017-07-28T09:54:30.871Z,2.40
2017-07-28T09:55:27.105Z,2.40
2017-07-28T09:56:34.814Z,2.60
2017-07-28T09:57:32.640Z,2.40
2017-07-28T09:58:29.408Z,2.50
2017-07-28T09:59:30.723Z,2.60
2017-07-28T10:00:27.634Z,2.50
2017-07-28T10:01:24.195Z,2.50
2017-07-28T10:02:20.451Z,2.70
2017-07-28T10:03:16.710Z,2.60
2017-07-28T10:04:12.934Z,2.40
2017-07-28T10:05:09.183Z,2.10
2017-07-28T10:06:05.432Z,3.00
2017-07-28T10:07:01.683Z,2.10
2017-07-28T10:07:57.946Z,2.60
2017-07-28T10:08:54.195Z,3.70
2017-07-28T10:09:50.439Z,3.00
2017-07-28T10:10:46.679Z,2.90
2017-07-28T10:11:42.930Z,3.10
2017-07-28T10:12:39.174Z,3.50
2017-07-28T10:13:35.435Z,2.60
2017-07-28T10:14:31.678Z,2.70
2017-07-28T10:15:27.926Z,2.80
2017-07-28T10:16:24.167Z,2.30
2017-07-28T10:17:20.415Z,2.70
2017-07-28T10:18:17.457Z,2.80
2017-07-28T10:22:33.911Z,3.40
2017-07-28T10:23:30.173Z,2.60
2017-07-28T10:24:26.510Z,2.20
2017-07-28T10:25:22.747Z,2.60
2017-07-28T10:26:18.989Z,2.70
2017-07-28T10:27:15.227Z,2.60
2017-07-28T10:28:11.465Z,3.30
2017-07-28T10:29:07.705Z,2.80
2017-07-28T10:30:03.940Z,2.70
2017-07-28T10:31:00.190Z,3.40
2017-07-28T10:31:56.427Z,2.70
2017-07-28T10:32:52.657Z,2.80
2017-07-28T10:33:48.919Z,2.30
2017-07-28T10:34:45.158Z,3.30
2017-07-28T10:35:41.394Z,3.00
2017-07-28T10:36:37.647Z,2.20
2017-07-28T10:37:33.883Z,2.90
2017-07-28T10:38:30.149Z,2.90
2017-07-28T10:39:26.412Z,3.50
2017-07-28T10:40:22.653Z,2.70
2017-07-28T10:41:18.898Z,2.70
2017-07-28T10:42:15.141Z,2.50
2017-07-28T10:43:11.379Z,3.40
2017-07-28T10:44:07.638Z,3.50
2017-07-28T10:45:03.894Z,2.80
2017-07-28T10:46:00.135Z,2.80
2017-07-28T10:46:56.372Z,2.70
2017-07-28T10:47:52.610Z,2.90
2017-07-28T10:48:48.850Z,2.70
2017-07-28T10:49:45.114Z,2.60
2017-07-28T10:50:41.351Z,2.70
2017-07-28T10:51:37.582Z,2.40
2017-07-28T10:52:33.823Z,2.90
2017-07-28T10:53:30.071Z,2.80
2017-07-28T10:54:26.338Z,2.90
2017-07-28T10:55:22.599Z,2.50
2017-07-28T10:56:18.842Z,3.00
2017-07-28T10:57:15.078Z,2.70
2017-07-28T10:58:11.314Z,3.30
2017-07-28T10:59:07.550Z,2.60
2017-07-28T11:00:03.814Z,3.00
2017-07-28T11:01:00.055Z,2.70
2017-07-28T11:01:56.306Z,3.40
2017-07-28T11:02:52.563Z,2.40
2017-07-28T11:03:49.275Z,3.00
2017-07-28T11:04:45.551Z,2.40
2017-07-28T11:05:41.798Z,3.30
2017-07-28T11:06:38.042Z,2.70
2017-07-28T11:07:34.309Z,2.60
2017-07-28T11:08:30.558Z,3.00
2017-07-28T11:09:26.807Z,3.70
2017-07-28T11:10:23.066Z,2.80
2017-07-28T11:11:19.310Z,3.00
2017-07-28T11:12:15.560Z,3.00
2017-07-28T11:13:11.799Z,2.70
2017-07-28T11:14:08.053Z,3.20
2017-07-28T11:15:04.320Z,4.70
2017-07-28T11:16:00.562Z,2.40
2017-07-28T11:16:56.803Z,2.80
2017-07-28T11:17:53.054Z,3.40
2017-07-28T11:18:49.331Z,2.70
2017-07-28T11:19:45.598Z,2.30
2017-07-28T11:20:41.872Z,3.00
2017-07-28T11:21:38.130Z,3.00
2017-07-28T11:22:34.387Z,2.60
2017-07-28T11:23:30.633Z,2.70
2017-07-28T11:24:26.889Z,2.60
2017-07-28T11:25:23.202Z,3.00
2017-07-28T11:26:19.439Z,3.30
2017-07-28T11:27:15.683Z,2.20
2017-07-28T11:28:11.925Z,2.60
2017-07-28T11:29:08.176Z,2.50
2017-07-28T11:30:04.422Z,2.80
2017-07-28T11:31:00.695Z,2.60
2017-07-28T11:31:56.948Z,3.60
2017-07-28T11:32:53.186Z,2.60
2017-07-28T11:33:49.430Z,2.90
2017-07-28T11:34:45.691Z,2.10
2017-07-28T11:35:42.024Z,2.70
2017-07-28T11:36:38.268Z,2.50
2017-07-28T11:37:34.522Z,2.80
2017-07-28T11:38:30.763Z,3.40
2017-07-28T11:39:27.015Z,2.90
2017-07-28T11:40:23.304Z,2.80
2017-07-28T11:41:19.563Z,2.90
2017-07-28T11:42:15.865Z,2.80
2017-07-28T11:43:12.190Z,2.50
2017-07-28T11:44:08.458Z,2.40
2017-07-28T11:45:04.733Z,2.60
2017-07-28T11:46:00.974Z,3.10
2017-07-28T11:46:57.215Z,2.70
2017-07-28T11:47:53.468Z,2.60
2017-07-28T11:48:49.723Z,3.20
2017-07-28T11:49:46.026Z,2.70
2017-07-28T11:50:42.294Z,3.30
2017-07-28T11:51:38.558Z,2.40
2017-07-28T11:52:34.803Z,2.30
2017-07-28T11:53:31.054Z,2.80
2017-07-28T11:54:27.306Z,2.20
2017-07-28T11:55:23.538Z,2.40
2017-07-28T11:56:19.804Z,3.30
2017-07-28T11:57:16.054Z,2.50
2017-07-28T11:58:12.299Z,2.50
2017-07-28T11:59:08.544Z,3.20
2017-07-28T12:00:04.798Z,2.60
2017-07-28T12:01:01.070Z,3.50
2017-07-28T12:01:57.322Z,2.30
2017-07-28T12:02:53.567Z,2.30
2017-07-28T12:03:49.799Z,2.20
2017-07-28T12:04:46.049Z,2.20
2017-07-28T12:05:42.351Z,2.70
2017-07-28T12:06:38.627Z,2.70
2017-07-28T12:07:34.928Z,2.30
2017-07-28T12:08:31.226Z,2.90
2017-07-28T12:09:27.471Z,3.10
2017-07-28T12:10:23.759Z,2.70
2017-07-28T12:11:20.089Z,2.80
2017-07-28T12:12:16.466Z,2.90
2017-07-28T12:13:12.986Z,2.60
2017-07-28T12:14:09.286Z,2.60
2017-07-28T12:15:05.587Z,2.30
2017-07-28T12:16:01.852Z,2.30
2017-07-28T12:16:58.126Z,2.40
2017-07-28T12:17:54.361Z,2.40
2017-07-28T12:18:50.619Z,2.30
2017-07-28T12:19:46.874Z,2.30
2017-07-28T12:20:43.123Z,2.30
2017-07-28T12:21:39.399Z,2.70
2017-07-28T12:22:35.634Z,2.40
2017-07-28T12:23:31.890Z,3.00
2017-07-28T12:24:28.135Z,2.60
2017-07-28T12:25:24.375Z,2.70
2017-07-28T12:26:20.614Z,2.60
2017-07-28T12:27:16.888Z,3.30
2017-07-28T12:28:13.191Z,2.70
2017-07-28T12:29:09.453Z,3.10
2017-07-28T12:30:05.707Z,2.70
2017-07-28T12:31:01.952Z,3.80
2017-07-28T12:31:58.227Z,3.40
2017-07-28T12:32:54.493Z,3.00
2017-07-28T12:33:50.773Z,2.90
2017-07-28T12:34:47.026Z,2.30
2017-07-28T12:35:43.274Z,2.80
2017-07-28T12:36:39.519Z,2.70
2017-07-28T12:37:35.778Z,2.40
2017-07-28T12:38:32.062Z,2.90
2017-07-28T12:39:28.342Z,2.20
2017-07-28T12:40:24.671Z,2.50
2017-07-28T12:41:20.919Z,3.40
2017-07-28T12:42:17.194Z,2.40
2017-07-28T12:43:13.433Z,3.00
2017-07-28T12:44:09.666Z,2.50
2017-07-28T12:45:07.803Z,2.50
2017-07-28T12:46:04.092Z,3.20
2017-07-28T12:47:00.389Z,2.10
2017-07-28T12:47:56.667Z,2.70
2017-07-28T12:48:52.914Z,2.60
2017-07-28T12:49:49.159Z,2.90
2017-07-28T12:50:45.423Z,2.50
2017-07-28T12:51:41.683Z,2.20
2017-07-28T12:52:37.942Z,3.10
2017-07-28T12:53:34.187Z,2.60
2017-07-28T12:54:30.454Z,2.60
2017-07-28T12:55:26.698Z,2.80
2017-07-28T12:56:22.954Z,2.50
2017-07-28T12:57:19.195Z,2.70
2017-07-28T12:58:15.455Z,2.20
2017-07-28T12:59:11.698Z,2.70
2017-07-28T13:00:07.977Z,1.80
2017-07-28T13:01:04.207Z,2.80
2017-07-28T13:02:00.457Z,2.50
2017-07-28T13:02:56.723Z,2.90
2017-07-28T13:03:52.971Z,2.30
2017-07-28T13:04:49.215Z,2.10
2017-07-28T13:05:45.462Z,2.70
2017-07-28T13:06:41.751Z,2.60
2017-07-28T13:07:37.987Z,2.40
2017-07-28T13:08:34.243Z,2.20
2017-07-28T13:09:30.479Z,2.50
2017-07-28T13:10:26.715Z,2.20
2017-07-28T13:11:22.971Z,2.10
2017-07-28T13:12:19.222Z,2.60
2017-07-28T13:13:15.603Z,2.80
2017-07-28T13:14:11.847Z,2.40
2017-07-28T13:15:08.086Z,2.30
2017-07-28T13:16:04.330Z,2.70
2017-07-28T13:17:00.586Z,2.80
2017-07-28T13:17:56.852Z,2.80
2017-07-28T13:18:53.112Z,4.80
2017-07-28T13:19:49.367Z,2.70
2017-07-28T13:20:45.745Z,3.50
2017-07-28T13:21:41.987Z,2.30
2017-07-28T13:22:38.235Z,3.70
2017-07-28T13:23:34.503Z,2.40
2017-07-28T13:24:30.806Z,2.40
2017-07-28T13:25:27.085Z,3.20
2017-07-28T13:26:23.400Z,2.40
2017-07-28T13:27:19.693Z,3.20
2017-07-28T13:28:15.942Z,2.20
2017-07-28T13:29:12.204Z,2.50
2017-07-28T13:30:08.438Z,2.60
2017-07-28T13:31:04.684Z,2.40
2017-07-28T13:32:00.971Z,2.10
2017-07-28T13:32:57.222Z,2.80
2017-07-28T13:33:54.511Z,2.10
2017-07-28T13:34:50.819Z,2.00
2017-07-28T13:35:47.090Z,2.60
2017-07-28T13:36:43.390Z,2.70
2017-07-28T13:37:39.673Z,2.00
2017-07-28T13:38:36.018Z,2.70
2017-07-28T13:39:32.283Z,2.10
2017-07-28T13:40:28.573Z,2.40
2017-07-28T13:41:24.866Z,1.80
2017-07-28T13:42:21.162Z,2.20
2017-07-28T13:43:17.406Z,2.10
2017-07-28T13:44:13.733Z,1.90
2017-07-28T13:45:09.987Z,2.30
2017-07-28T13:46:06.434Z,2.30
2017-07-28T13:47:07.395Z,2.40
2017-07-28T13:48:04.638Z,2.60
2017-07-28T13:49:00.899Z,2.90
2017-07-28T13:49:57.156Z,2.10
2017-07-28T13:50:53.501Z,2.40
2017-07-28T13:51:49.838Z,2.10
2017-07-28T13:52:47.100Z,2.20
2017-07-28T13:53:43.351Z,2.20
2017-07-28T13:54:39.619Z,2.80
2017-07-28T13:55:35.867Z,3.00
2017-07-28T13:56:32.131Z,1.80
2017-07-28T13:57:28.399Z,1.80
2017-07-28T13:58:24.675Z,1.80
2017-07-28T13:59:21.123Z,1.70
2017-07-28T14:00:17.359Z,2.40
2017-07-28T14:01:13.674Z,1.60
2017-07-28T14:02:09.934Z,2.00
2017-07-28T14:03:06.162Z,2.20
2017-07-28T14:04:02.506Z,3.30
2017-07-28T14:04:58.763Z,2.70
2017-07-28T14:05:55.006Z,2.00
2017-07-28T14:06:51.533Z,1.80
2017-07-28T14:07:47.766Z,2.20
2017-07-28T14:08:44.031Z,1.70
2017-07-28T14:09:40.277Z,1.80
2017-07-28T14:10:36.683Z,1.80
2017-07-28T14:11:32.967Z,1.70
2017-07-28T14:12:29.243Z,2.00
2017-07-28T14:13:25.483Z,2.30
2017-07-28T14:14:21.721Z,2.50
2017-07-28T14:15:17.991Z,1.70
2017-07-28T14:16:14.280Z,1.70
2017-07-28T14:17:10.583Z,2.00
2017-07-28T14:18:06.834Z,1.90
2017-07-28T14:19:03.079Z,2.10
2017-07-28T14:19:59.318Z,2.10
2017-07-28T14:20:56.585Z,2.20
2017-07-28T14:21:53.755Z,2.00
2017-07-28T14:22:49.995Z,1.90
2017-07-28T14:23:46.262Z,2.00
2017-07-28T14:24:42.503Z,1.90
2017-07-28T14:25:38.766Z,1.70
2017-07-28T14:26:34.998Z,2.00
2017-07-28T14:27:31.668Z,2.40
2017-07-28T14:28:31.954Z,2.10
2017-07-28T14:29:28.195Z,2.80
2017-07-28T14:30:24.462Z,2.60
2017-07-28T14:31:20.742Z,2.10
2017-07-28T14:32:17.339Z,2.00
2017-07-28T14:33:13.579Z,2.40
2017-07-28T14:34:09.831Z,1.90
2017-07-28T14:35:06.082Z,1.90
2017-07-28T14:36:02.393Z,1.80
2017-07-28T14:36:58.683Z,2.00
2017-07-28T14:37:54.926Z,2.00
2017-07-28T14:38:52.183Z,1.70
2017-07-28T14:39:48.435Z,1.80
2017-07-28T14:40:44.683Z,1.70
2017-07-28T14:41:40.974Z,2.20
2017-07-28T14:42:37.226Z,2.70
2017-07-28T14:43:33.474Z,1.80
2017-07-28T14:44:29.719Z,1.80
2017-07-28T14:45:25.975Z,1.70
2017-07-28T14:46:22.255Z,1.50
2017-07-28T14:47:19.103Z,2.50
2017-07-28T14:48:16.353Z,2.10
2017-07-28T14:49:12.718Z,1.60
2017-07-28T14:50:08.977Z,1.80
2017-07-28T14:51:05.306Z,2.00
2017-07-28T14:52:01.549Z,1.60
2017-07-28T14:52:57.808Z,1.50
2017-07-28T14:53:54.049Z,1.80
2017-07-28T14:54:50.289Z,2.00
2017-07-28T14:55:46.543Z,1.60
2017-07-28T14:56:42.823Z,1.50
2017-07-28T14:57:39.066Z,2.00
2017-07-28T14:58:35.322Z,1.70
2017-07-28T14:59:31.597Z,1.80
2017-07-28T15:00:27.855Z,2.00
2017-07-28T15:01:24.102Z,1.60
2017-07-28T15:02:20.358Z,1.80
2017-07-28T15:03:16.581Z,1.90
2017-07-28T15:04:12.832Z,1.80
2017-07-28T15:05:09.075Z,1.40
2017-07-28T15:06:05.334Z,2.30
2017-07-28T15:07:01.594Z,1.90
2017-07-28T15:07:57.850Z,1.50
2017-07-28T15:08:54.083Z,1.40
2017-07-28T15:09:50.449Z,1.50
2017-07-28T15:10:46.972Z,1.60
2017-07-28T15:11:43.498Z,1.70
2017-07-28T15:12:40.126Z,1.40
2017-07-28T15:14:52.966Z,1.40
2017-07-28T15:15:49.215Z,1.60
2017-07-28T15:16:45.459Z,1.50
2017-07-28T15:17:42.678Z,1.20
2017-07-28T15:18:38.927Z,1.90
2017-07-28T15:19:35.171Z,1.60
2017-07-28T15:20:33.137Z,1.80
2017-07-28T15:21:29.391Z,1.20
2017-07-28T15:22:25.666Z,1.40
2017-07-28T15:23:21.931Z,1.80
2017-07-28T15:24:18.205Z,1.50
2017-07-28T15:25:14.792Z,1.70
2017-07-28T15:26:11.038Z,1.80
2017-07-28T15:27:07.283Z,1.50
2017-07-28T15:28:05.558Z,1.60
2017-07-28T15:29:01.819Z,1.70
2017-07-28T15:29:58.083Z,1.80
2017-07-28T15:30:54.635Z,1.50
2017-07-28T15:31:50.930Z,2.30
2017-07-28T15:32:47.219Z,2.10
2017-07-28T15:33:43.489Z,1.90
2017-07-28T15:34:39.755Z,1.40
2017-07-28T15:35:36.019Z,1.80
2017-07-28T15:36:32.254Z,2.00
2017-07-28T15:37:28.514Z,1.60
2017-07-28T15:38:24.994Z,1.80
2017-07-28T15:39:21.230Z,1.50
2017-07-28T15:40:17.474Z,1.70
2017-07-28T15:41:13.762Z,1.60
2017-07-28T15:42:10.022Z,2.20
2017-07-28T15:43:06.278Z,1.60
2017-07-28T15:44:02.527Z,1.60
2017-07-28T15:44:58.770Z,1.50
2017-07-28T15:45:55.009Z,1.40
2017-07-28T15:46:51.262Z,1.90
2017-07-28T15:47:47.754Z,1.60
2017-07-28T15:48:44.022Z,1.60
2017-07-28T15:49:40.259Z,1.20
2017-07-28T15:50:36.522Z,1.70
2017-07-28T15:51:32.802Z,1.60
2017-07-28T15:52:29.046Z,1.60
2017-07-28T15:53:25.306Z,1.70
2017-07-28T15:54:21.541Z,1.50
2017-07-28T15:55:17.774Z,1.60
2017-07-28T15:56:14.031Z,1.80
2017-07-28T15:57:10.275Z,1.60
2017-07-28T15:58:06.661Z,1.60
2017-07-28T15:59:02.924Z,3.20
2017-07-28T15:59:59.195Z,1.60
2017-07-28T16:00:55.480Z,1.60
2017-07-28T16:01:51.777Z,2.00
2017-07-28T16:02:48.147Z,1.80
2017-07-28T16:03:44.430Z,2.40
2017-07-28T16:04:40.723Z,2.00
2017-07-28T16:05:37.071Z,1.50
2017-07-28T16:06:33.330Z,1.60
2017-07-28T16:07:29.606Z,1.80
2017-07-28T16:08:25.898Z,1.80
2017-07-28T16:09:22.185Z,2.50
2017-07-28T16:10:18.482Z,2.00
2017-07-28T16:11:14.802Z,1.60
2017-07-28T16:12:11.054Z,2.10
2017-07-28T16:13:07.294Z,1.90
2017-07-28T16:14:03.562Z,1.50
2017-07-28T16:14:59.846Z,1.60
2017-07-28T16:15:56.175Z,1.50
2017-07-28T16:16:52.466Z,1.70
2017-07-28T16:17:48.954Z,2.20
2017-07-28T16:18:45.367Z,1.80
2017-07-28T16:19:41.623Z,1.70
2017-07-28T16:20:37.922Z,2.40
2017-07-28T16:21:34.311Z,1.70
2017-07-28T16:22:31.038Z,1.90
2017-07-28T16:23:28.023Z,1.40
2017-07-28T16:24:24.841Z,1.60